Time;durP1;ratioP1;P1;durP2;ratioP2;P2;SDS_P1;SDS_P2;PMS_P1;PMS_P2;Temp;Humidity;BMP_temperature;BMP_pressure;BME280_temperature;BME280_humidity;BME280_pressure;Samples;Min_cycle;Max_cycle;Signal;HPM_P1;HPM_P2
2020/12/06 00:00:57;;;;;;;21.75;16.27;;;5.00;99.90;;;;;;4998420;28;20220;-86
2020/12/06 00:03:27;;;;;;;23.13;15.73;;;4.80;99.90;;;;;;5001762;28;20212;-86
2020/12/06 00:05:53;;;;;;;24.77;17.92;;;5.00;99.90;;;;;;4998369;28;20233;-86
2020/12/06 00:08:20;;;;;;;23.90;16.80;;;5.10;99.90;;;;;;4998075;28;20244;-86
2020/12/06 00:10:46;;;;;;;20.35;16.75;;;5.10;99.90;;;;;;4999325;28;20211;-85
2020/12/06 00:13:12;;;;;;;16.73;14.30;;;5.20;99.90;;;;;;4999509;28;20209;-85
2020/12/06 00:15:39;;;;;;;22.80;15.43;;;5.10;99.90;;;;;;5002680;28;20232;-85
2020/12/06 00:18:05;;;;;;;22.65;17.23;;;5.10;99.90;;;;;;5007964;28;20206;-85
2020/12/06 00:20:32;;;;;;;25.70;18.42;;;5.00;99.90;;;;;;5007044;28;20220;-85
2020/12/06 00:23:00;;;;;;;21.80;17.58;;;7.30;99.90;;;;;;5014154;28;20205;-85
2020/12/06 00:25:26;;;;;;;24.35;18.92;;;4.80;99.90;;;;;;5013719;28;20264;-85
2020/12/06 00:27:52;;;;;;;22.05;16.77;;;4.80;99.90;;;;;;5011855;28;20202;-84
2020/12/06 00:30:19;;;;;;;23.55;17.65;;;4.90;99.90;;;;;;5011722;28;20202;-83
2020/12/06 00:32:45;;;;;;;21.75;16.67;;;5.00;99.90;;;;;;5012530;28;20204;-85
2020/12/06 00:35:12;;;;;;;21.55;16.55;;;4.90;99.90;;;;;;5014885;28;20300;-85
2020/12/06 00:37:40;;;;;;;25.75;18.77;;;5.00;99.90;;;;;;5014307;28;20214;-85
2020/12/06 00:40:07;;;;;;;21.77;17.20;;;5.10;99.90;;;;;;5011678;28;20592;-85
2020/12/06 00:42:33;;;;;;;21.38;15.38;;;4.90;99.90;;;;;;5005978;28;20207;-84
2020/12/06 00:44:59;;;;;;;19.67;16.08;;;5.10;99.90;;;;;;5012734;28;20226;-85
2020/12/06 00:47:25;;;;;;;21.45;19.17;;;5.00;99.90;;;;;;5013607;28;20203;-85
2020/12/06 00:49:52;;;;;;;19.90;17.55;;;5.00;99.90;;;;;;5014323;28;20202;-85
2020/12/06 00:52:18;;;;;;;27.77;20.67;;;5.20;99.90;;;;;;5012668;28;20207;-86
2020/12/06 00:54:45;;;;;;;20.85;16.25;;;5.10;99.90;;;;;;5010631;28;20286;-85
2020/12/06 00:57:11;;;;;;;21.63;15.85;;;5.10;99.90;;;;;;5010679;28;20196;-84
2020/12/06 00:59:37;;;;;;;23.13;18.35;;;5.10;99.90;;;;;;5010077;28;20217;-85
2020/12/06 01:02:05;;;;;;;26.33;18.13;;;5.10;99.90;;;;;;5009440;28;20220;-85
2020/12/06 01:04:32;;;;;;;21.60;16.75;;;5.10;99.90;;;;;;5009173;28;20228;-83
2020/12/06 01:06:59;;;;;;;20.60;15.48;;;5.10;99.90;;;;;;5011876;28;20207;-85
2020/12/06 01:09:25;;;;;;;18.45;16.45;;;5.20;99.90;;;;;;5011310;28;20200;-86
2020/12/06 01:11:52;;;;;;;22.08;16.33;;;5.10;99.90;;;;;;5011855;28;20205;-84
2020/12/06 01:14:19;;;;;;;25.17;16.55;;;4.90;99.90;;;;;;5013443;28;20291;-85
2020/12/06 01:16:49;;;;;;;23.38;15.80;;;;;;;;;;5011310;28;20215;-85
2020/12/06 01:19:16;;;;;;;24.50;15.63;;;4.80;99.90;;;;;;5011376;28;20229;-85
2020/12/06 01:21:48;;;;;;;19.60;15.20;;;5.10;99.90;;;;;;5009269;28;20226;-85
2020/12/06 01:24:14;;;;;;;18.42;14.95;;;5.30;99.90;;;;;;5011001;28;20667;-85
2020/12/06 01:26:40;;;;;;;18.35;15.00;;;5.10;99.90;;;;;;5012311;28;20222;-84
2020/12/06 01:29:07;;;;;;;26.63;15.43;;;5.20;99.90;;;;;;5011826;28;20202;-84
2020/12/06 01:31:34;;;;;;;21.65;16.10;;;5.10;99.90;;;;;;5009450;28;20201;-84
2020/12/06 01:34:00;;;;;;;18.48;15.45;;;5.10;99.90;;;;;;5010538;28;20200;-84
2020/12/06 01:36:26;;;;;;;19.75;14.90;;;5.30;99.90;;;;;;5010323;28;20774;-85
2020/12/06 01:38:52;;;;;;;25.25;17.00;;;6.00;99.90;;;;;;5010614;28;20197;-84
2020/12/06 01:41:19;;;;;;;23.95;18.05;;;4.90;99.90;;;;;;5017431;28;20237;-84
2020/12/06 01:43:54;;;;;;;23.65;16.50;;;4.50;99.90;;;;;;5022331;28;20238;-84
2020/12/06 01:46:22;;;;;;;22.10;17.25;;;5.10;99.90;;;;;;5021871;28;20646;-83
2020/12/06 01:48:49;;;;;;;19.30;15.70;;;4.20;99.90;;;;;;5021622;28;20210;-84
2020/12/06 01:51:16;;;;;;;24.17;18.52;;;4.60;99.90;;;;;;5021621;28;20216;-84
2020/12/06 01:53:43;;;;;;;24.08;17.35;;;4.60;99.90;;;;;;5020717;28;20217;-83
2020/12/06 01:56:09;;;;;;;20.75;14.60;;;4.60;99.90;;;;;;5021429;28;20245;-85
2020/12/06 01:58:35;;;;;;;23.98;17.38;;;4.70;99.90;;;;;;5021000;28;20573;-84
2020/12/06 02:01:01;;;;;;;27.23;16.75;;;4.70;99.90;;;;;;5022001;28;20225;-84
2020/12/06 02:03:29;;;;;;;18.63;15.18;;;;;;;;;;5021166;28;20218;-84
2020/12/06 02:05:56;;;;;;;23.92;17.77;;;4.90;99.90;;;;;;5021027;28;20251;-84
2020/12/06 02:08:22;;;;;;;22.35;15.02;;;5.00;99.90;;;;;;5020919;28;20209;-84
2020/12/06 02:10:48;;;;;;;16.88;14.52;;;5.40;99.90;;;;;;5020128;28;20210;-84
2020/12/06 02:13:15;;;;;;;21.38;17.00;;;6.50;99.90;;;;;;5020440;28;20268;-83
2020/12/06 02:15:41;;;;;;;18.65;16.15;;;5.20;99.90;;;;;;5020386;28;20229;-84
2020/12/06 02:18:07;;;;;;;24.08;16.60;;;5.00;99.90;;;;;;5021290;28;20631;-84
2020/12/06 02:20:34;;;;;;;20.45;16.08;;;5.10;99.90;;;;;;5021343;28;20564;-84
2020/12/06 02:23:00;;;;;;;22.45;17.42;;;6.00;99.90;;;;;;5021970;28;20211;-84
2020/12/06 02:25:27;;;;;;;22.05;17.05;;;5.00;99.90;;;;;;5027173;28;20264;-83
2020/12/06 02:27:53;;;;;;;25.77;19.40;;;;;;;;;;5028479;28;20213;-83
2020/12/06 02:30:21;;;;;;;29.48;19.80;;;;;;;;;;5027222;28;20211;-83
2020/12/06 02:32:48;;;;;;;30.58;18.88;;;4.80;99.90;;;;;;5027073;28;20247;-82
2020/12/06 02:35:14;;;;;;;33.90;19.65;;;4.80;99.90;;;;;;5027910;28;20226;-84
2020/12/06 02:37:41;;;;;;;31.00;20.63;;;5.40;99.90;;;;;;5027590;28;20205;-83
2020/12/06 02:40:07;;;;;;;32.60;24.77;;;5.00;99.90;;;;;;5020781;28;20405;-83
2020/12/06 02:42:33;;;;;;;30.88;19.35;;;4.70;99.90;;;;;;5019909;28;20235;-84
2020/12/06 02:45:00;;;;;;;26.98;21.02;;;4.70;99.90;;;;;;5019351;28;20239;-84
2020/12/06 02:47:26;;;;;;;25.27;18.77;;;4.70;99.90;;;;;;5019659;28;20242;-83
2020/12/06 02:49:52;;;;;;;26.17;17.33;;;4.90;99.90;;;;;;5019474;28;20212;-84
2020/12/06 02:52:18;;;;;;;27.58;19.08;;;4.80;99.90;;;;;;5019509;28;20201;-84
2020/12/06 02:54:45;;;;;;;26.83;19.30;;;4.50;99.90;;;;;;5018735;28;20225;-84
2020/12/06 02:57:12;;;;;;;29.10;19.17;;;4.50;99.90;;;;;;5018918;28;20217;-83
2020/12/06 02:59:38;;;;;;;32.35;20.65;;;4.60;99.90;;;;;;5018926;28;20222;-84
2020/12/06 03:02:04;;;;;;;34.40;20.20;;;4.40;99.90;;;;;;5018273;28;20227;-84
2020/12/06 03:04:30;;;;;;;29.95;20.17;;;4.30;99.90;;;;;;5019073;28;20226;-85
2020/12/06 03:06:57;;;;;;;26.20;20.70;;;4.20;99.90;;;;;;5018278;28;20218;-85
2020/12/06 03:09:23;;;;;;;30.55;19.13;;;4.10;99.90;;;;;;5019141;28;20208;-84
2020/12/06 03:11:50;;;;;;;36.50;21.10;;;4.10;99.90;;;;;;5018813;28;20208;-85
2020/12/06 03:14:17;;;;;;;37.80;21.88;;;4.00;99.90;;;;;;5032608;28;20293;-83
2020/12/06 03:16:43;;;;;;;33.20;22.30;;;4.20;99.90;;;;;;5036648;28;20192;-83
2020/12/06 03:19:09;;;;;;;33.35;21.55;;;4.20;99.90;;;;;;5024475;28;20218;-85
2020/12/06 03:21:36;;;;;;;32.78;23.00;;;4.20;99.90;;;;;;5023616;28;20272;-85
2020/12/06 03:24:02;;;;;;;29.52;20.80;;;4.20;99.90;;;;;;5023100;28;20212;-84
2020/12/06 03:26:29;;;;;;;31.00;18.65;;;4.40;99.90;;;;;;5022465;28;20319;-85
2020/12/06 03:28:56;;;;;;;31.52;20.33;;;4.30;99.90;;;;;;5022919;28;20204;-85
2020/12/06 03:31:22;;;;;;;41.50;20.58;;;4.30;99.90;;;;;;5023166;28;20206;-84
2020/12/06 03:33:48;;;;;;;43.10;23.38;;;4.30;99.90;;;;;;5023042;28;20209;-84
2020/12/06 03:36:14;;;;;;;34.75;23.15;;;4.30;99.90;;;;;;5023016;28;20230;-84
2020/12/06 03:38:41;;;;;;;39.38;21.48;;;4.20;99.90;;;;;;5023418;28;20213;-85
2020/12/06 03:41:07;;;;;;;36.53;21.48;;;4.10;99.90;;;;;;5022281;28;20225;-84
2020/12/06 03:43:33;;;;;;;43.13;25.90;;;4.20;99.90;;;;;;5021569;28;20219;-85
2020/12/06 03:46:00;;;;;;;39.70;23.58;;;4.20;99.90;;;;;;5022098;28;20239;-84
2020/12/06 03:48:26;;;;;;;42.63;26.52;;;4.10;99.90;;;;;;5021319;28;20210;-85
2020/12/06 03:50:53;;;;;;;43.67;27.48;;;3.90;99.90;;;;;;5021298;28;20603;-84
2020/12/06 03:53:19;;;;;;;45.50;26.20;;;3.90;99.90;;;;;;5021102;28;20222;-84
2020/12/06 03:55:45;;;;;;;39.78;22.83;;;3.90;99.90;;;;;;5022130;28;20235;-85
2020/12/06 03:58:12;;;;;;;38.10;23.63;;;3.70;99.90;;;;;;5020522;28;20306;-84
2020/12/06 04:00:38;;;;;;;39.85;24.15;;;3.70;99.90;;;;;;5020945;28;20211;-84
2020/12/06 04:03:05;;;;;;;46.25;25.70;;;5.20;99.90;;;;;;5021567;28;20221;-84
2020/12/06 04:05:31;;;;;;;45.45;24.42;;;3.60;99.90;;;;;;5021138;28;20224;-84
2020/12/06 04:07:57;;;;;;;35.35;24.23;;;3.60;99.90;;;;;;5020566;28;20211;-84
2020/12/06 04:10:24;;;;;;;51.22;29.70;;;3.70;99.90;;;;;;5020587;28;20210;-84
2020/12/06 04:12:50;;;;;;;35.22;22.50;;;3.70;99.90;;;;;;5020182;28;20206;-84
2020/12/06 04:15:17;;;;;;;45.80;26.73;;;3.80;99.90;;;;;;5020065;28;20227;-85
2020/12/06 04:17:43;;;;;;;42.30;24.48;;;3.70;99.90;;;;;;5020896;28;20202;-84
2020/12/06 04:20:10;;;;;;;35.00;24.63;;;3.80;99.90;;;;;;5020971;28;20208;-84
2020/12/06 04:22:37;;;;;;;37.47;22.52;;;3.90;99.90;;;;;;5019854;28;20232;-85
2020/12/06 04:25:03;;;;;;;44.72;22.13;;;3.90;99.90;;;;;;5020705;28;20282;-84
2020/12/06 04:27:30;;;;;;;43.38;26.33;;;4.00;99.90;;;;;;5021799;28;20211;-85
2020/12/06 04:29:56;;;;;;;34.92;20.92;;;4.10;99.90;;;;;;5019444;28;20203;-84
2020/12/06 04:32:22;;;;;;;34.70;21.60;;;4.10;99.90;;;;;;5020345;28;20204;-85
2020/12/06 04:34:48;;;;;;;43.88;24.90;;;4.10;99.90;;;;;;5020535;28;20246;-84
2020/12/06 04:37:15;;;;;;;39.05;25.17;;;4.00;99.90;;;;;;5019884;28;20219;-84
2020/12/06 04:39:42;;;;;;;45.08;22.50;;;4.00;99.90;;;;;;5019733;28;20220;-84
2020/12/06 04:42:08;;;;;;;37.58;23.17;;;4.00;99.90;;;;;;5019406;28;20259;-83
2020/12/06 04:44:35;;;;;;;39.80;23.48;;;3.90;99.90;;;;;;5019500;28;20235;-84
2020/12/06 04:47:03;;;;;;;45.53;26.25;;;4.00;99.90;;;;;;5019764;28;20591;-84
2020/12/06 04:49:42;;;;;;;69.78;29.65;;;4.00;99.90;;;;;;5019644;28;20637;-84
2020/12/06 04:52:13;;;;;;;79.15;30.88;;;4.70;99.90;;;;;;5019801;28;20193;-84
2020/12/06 04:54:42;;;;;;;128.27;37.67;;;3.70;99.90;;;;;;5021226;28;20231;-85
2020/12/06 04:57:11;;;;;;;154.60;38.50;;;3.60;99.90;;;;;;5030116;28;20238;-85
2020/12/06 04:59:42;;;;;;;164.68;43.58;;;3.50;99.90;;;;;;5031859;28;20275;-86
2020/12/06 05:02:10;;;;;;;127.20;38.65;;;3.60;99.90;;;;;;5031045;28;20232;-86
2020/12/06 05:04:42;;;;;;;108.75;33.95;;;3.50;99.90;;;;;;5030984;28;20231;-85
2020/12/06 05:07:09;;;;;;;123.90;33.63;;;3.50;99.90;;;;;;5031151;28;20204;-86
2020/12/06 05:09:36;;;;;;;102.80;33.10;;;3.50;99.90;;;;;;5030845;28;20245;-85
2020/12/06 05:12:04;;;;;;;82.38;31.30;;;3.60;99.90;;;;;;5031415;28;20203;-85
2020/12/06 05:14:31;;;;;;;123.50;34.30;;;3.60;99.90;;;;;;5030224;28;20207;-85
2020/12/06 05:16:58;;;;;;;88.50;27.88;;;3.60;99.90;;;;;;5029874;28;20665;-85
2020/12/06 05:19:28;;;;;;;150.15;38.70;;;3.50;99.90;;;;;;5030445;28;20217;-85
2020/12/06 05:21:54;;;;;;;107.68;33.92;;;3.40;99.90;;;;;;5029881;28;20223;-86
2020/12/06 05:24:21;;;;;;;112.22;33.67;;;3.30;99.90;;;;;;5030630;28;20212;-85
2020/12/06 05:26:48;;;;;;;101.13;31.35;;;3.30;99.90;;;;;;5030547;28;20215;-85
2020/12/06 05:29:15;;;;;;;92.28;30.13;;;3.30;99.90;;;;;;5030738;28;20658;-86
2020/12/06 05:31:41;;;;;;;130.52;36.80;;;3.40;99.90;;;;;;5030796;28;20212;-85
2020/12/06 05:34:07;;;;;;;167.18;49.13;;;3.00;99.90;;;;;;5030990;28;20210;-86
2020/12/06 05:36:34;;;;;;;137.30;35.42;;;3.10;99.90;;;;;;5030583;28;20234;-86
2020/12/06 05:39:00;;;;;;;111.90;34.33;;;5.30;99.90;;;;;;5030649;28;20219;-86
2020/12/06 05:41:26;;;;;;;148.05;39.05;;;3.30;99.90;;;;;;5030330;28;20772;-86
2020/12/06 05:43:52;;;;;;;113.68;34.97;;;3.30;99.90;;;;;;5030938;28;20211;-85
2020/12/06 05:46:20;;;;;;;118.95;35.67;;;3.40;99.90;;;;;;5031058;28;20237;-85
2020/12/06 05:48:46;;;;;;;96.80;32.30;;;3.10;99.90;;;;;;5030532;28;20219;-85
2020/12/06 05:51:14;;;;;;;111.55;32.30;;;2.90;99.90;;;;;;5029760;28;20280;-86
2020/12/06 05:53:41;;;;;;;87.30;34.10;;;3.50;99.90;;;;;;5029880;28;20225;-86
2020/12/06 05:56:13;;;;;;;82.00;32.13;;;3.50;99.90;;;;;;5029994;28;20239;-85
2020/12/06 05:58:42;;;;;;;93.38;35.47;;;6.30;99.90;;;;;;5029924;28;20204;-85
2020/12/06 06:01:09;;;;;;;68.72;29.98;;;3.50;99.90;;;;;;5028464;28;20230;-84
2020/12/06 06:03:37;;;;;;;144.23;45.13;;;3.60;99.90;;;;;;5025964;28;20208;-85
2020/12/06 06:06:05;;;;;;;72.32;30.05;;;3.60;99.90;;;;;;5025930;28;20233;-84
2020/12/06 06:08:36;;;;;;;49.38;26.25;;;3.50;99.90;;;;;;5025367;28;20227;-84
2020/12/06 06:11:23;;;;;;;50.50;23.15;;;3.60;99.90;;;;;;5025518;28;20211;-84
2020/12/06 06:13:54;;;;;;;51.78;23.88;;;3.60;99.90;;;;;;5024965;28;20700;-85
2020/12/06 06:16:22;;;;;;;59.85;26.83;;;3.50;99.90;;;;;;5026251;28;20237;-84
2020/12/06 06:18:51;;;;;;;60.30;26.85;;;3.90;99.90;;;;;;5028280;28;20208;-85
2020/12/06 06:21:19;;;;;;;64.95;26.58;;;3.60;99.90;;;;;;5027651;28;20223;-85
2020/12/06 06:23:47;;;;;;;85.93;31.58;;;3.50;99.90;;;;;;5026503;28;20680;-85
2020/12/06 06:26:15;;;;;;;78.47;35.72;;;3.30;99.90;;;;;;5024953;28;20224;-84
2020/12/06 06:28:43;;;;;;;62.60;27.08;;;3.20;99.90;;;;;;5026645;28;20240;-85
2020/12/06 06:31:10;;;;;;;64.32;31.05;;;5.60;99.90;;;;;;5028805;28;20213;-85
2020/12/06 06:33:38;;;;;;;50.63;30.17;;;5.80;99.90;;;;;;5027818;28;20205;-85
2020/12/06 06:36:08;;;;;;;64.18;28.75;;;4.20;99.90;;;;;;5027636;28;20247;-85
2020/12/06 06:38:39;;;;;;;60.00;29.65;;;3.20;99.90;;;;;;5028833;28;20222;-85
2020/12/06 06:41:07;;;;;;;43.13;24.10;;;3.30;99.90;;;;;;5028538;28;20212;-85
2020/12/06 06:43:35;;;;;;;53.17;27.23;;;3.40;99.90;;;;;;5029120;28;20239;-86
2020/12/06 06:46:09;;;;;;;53.40;25.88;;;3.60;99.90;;;;;;5029082;28;20227;-85
2020/12/06 06:48:36;;;;;;;53.72;28.02;;;3.70;99.90;;;;;;5029806;28;20275;-85
2020/12/06 06:51:02;;;;;;;96.07;32.58;;;3.70;99.90;;;;;;5028889;28;20219;-85
2020/12/06 06:53:29;;;;;;;68.63;24.30;;;6.10;99.90;;;;;;5028803;28;20218;-85
2020/12/06 06:55:56;;;;;;;69.93;25.60;;;3.60;99.90;;;;;;5037358;28;20302;-84
2020/12/06 06:58:24;;;;;;;107.43;32.95;;;3.70;99.90;;;;;;5040384;28;20211;-85
2020/12/06 07:00:50;;;;;;;62.72;25.67;;;3.80;99.90;;;;;;5036024;28;20300;-85
2020/12/06 07:03:18;;;;;;;78.40;28.60;;;3.60;99.90;;;;;;5033503;28;20584;-85
2020/12/06 07:05:45;;;;;;;60.20;25.27;;;3.90;99.90;;;;;;5032779;28;20228;-85
2020/12/06 07:08:12;;;;;;;145.38;40.58;;;3.80;99.90;;;;;;5031758;28;20212;-85
2020/12/06 07:10:40;;;;;;;101.70;34.45;;;3.90;99.90;;;;;;5031593;28;20208;-85
2020/12/06 07:13:07;;;;;;;91.55;30.15;;;3.70;99.90;;;;;;5030757;28;20246;-84
2020/12/06 07:15:34;;;;;;;112.05;38.58;;;3.50;99.90;;;;;;5030900;28;20250;-85
2020/12/06 07:18:02;;;;;;;50.13;23.80;;;3.60;99.90;;;;;;5031241;28;20267;-85
2020/12/06 07:20:29;;;;;;;52.50;23.13;;;3.60;99.90;;;;;;5030683;28;20296;-85
2020/12/06 07:22:56;;;;;;;42.53;23.35;;;3.50;99.90;;;;;;5030713;28;20248;-85
2020/12/06 07:25:24;;;;;;;96.82;25.88;;;3.70;99.90;;;;;;5030408;28;20230;-85
2020/12/06 07:27:51;;;;;;;134.35;35.63;;;3.70;99.90;;;;;;5030261;28;20215;-85
2020/12/06 07:30:19;;;;;;;62.08;21.58;;;3.40;99.90;;;;;;5031147;28;20215;-85
2020/12/06 07:32:46;;;;;;;71.47;27.60;;;3.60;99.90;;;;;;5030972;28;20242;-85
2020/12/06 07:35:14;;;;;;;157.73;37.22;;;3.70;99.90;;;;;;5032158;28;20238;-85
2020/12/06 07:37:40;;;;;;;70.90;24.73;;;3.80;99.90;;;;;;5030479;28;20262;-85
2020/12/06 07:40:09;;;;;;;52.75;22.08;;;3.80;99.90;;;;;;5030500;28;20211;-85
2020/12/06 07:42:36;;;;;;;97.25;26.63;;;3.90;99.90;;;;;;5029298;28;20292;-85
2020/12/06 07:45:05;;;;;;;62.92;22.23;;;3.80;99.90;;;;;;5030422;28;20226;-85
2020/12/06 07:47:31;;;;;;;45.58;20.27;;;3.80;99.90;;;;;;5030261;28;20208;-85
2020/12/06 07:49:59;;;;;;;56.78;19.80;;;3.60;99.90;;;;;;5029729;28;20211;-85
2020/12/06 07:52:27;;;;;;;43.85;20.42;;;5.40;99.90;;;;;;5030464;28;20215;-85
2020/12/06 07:54:57;;;;;;;83.88;23.58;;;4.00;99.90;;;;;;5029493;28;20231;-85
2020/12/06 07:57:49;;;;;;;38.50;18.27;;;6.20;99.90;;;;;;5030522;28;20218;-85
2020/12/06 08:00:18;;;;;;;60.70;23.77;;;4.00;99.90;;;;;;5016257;28;20208;-85
2020/12/06 08:02:47;;;;;;;47.20;19.67;;;4.10;99.90;;;;;;5030173;28;20229;-85
2020/12/06 08:05:18;;;;;;;65.28;21.05;;;3.80;99.90;;;;;;5030347;28;20605;-84
2020/12/06 08:07:47;;;;;;;59.60;20.67;;;4.10;99.90;;;;;;5030465;28;20208;-84
2020/12/06 08:10:16;;;;;;;56.13;20.95;;;4.10;99.90;;;;;;5029737;28;20208;-84
2020/12/06 08:12:45;;;;;;;63.90;21.85;;;4.20;99.90;;;;;;5028627;28;20232;-84
2020/12/06 08:15:11;;;;;;;82.32;25.23;;;4.00;99.90;;;;;;5029914;28;20232;-84
2020/12/06 08:17:46;;;;;;;40.78;20.55;;;4.10;99.90;;;;;;5029836;28;20226;-84
2020/12/06 08:20:14;;;;;;;94.97;29.23;;;4.20;99.90;;;;;;5030082;28;20211;-84
2020/12/06 08:22:59;;;;;;;82.57;26.85;;;4.20;99.90;;;;;;5028746;28;20231;-84
2020/12/06 08:25:26;;;;;;;92.35;27.77;;;4.20;99.90;;;;;;5030168;28;20230;-85
2020/12/06 08:27:54;;;;;;;41.10;18.75;;;4.30;99.90;;;;;;5030960;28;20222;-85
2020/12/06 08:30:22;;;;;;;36.40;18.13;;;4.20;99.90;;;;;;5031348;28;20218;-84
2020/12/06 08:32:54;;;;;;;41.90;20.25;;;4.40;99.90;;;;;;5031327;28;20200;-84
2020/12/06 08:35:21;;;;;;;39.50;16.65;;;3.50;99.90;;;;;;5031900;28;20223;-85
2020/12/06 08:37:48;;;;;;;37.33;16.33;;;5.20;99.90;;;;;;5032228;28;20247;-85
2020/12/06 08:40:14;;;;;;;39.70;19.00;;;4.30;99.90;;;;;;5032144;28;20211;-84
2020/12/06 08:42:40;;;;;;;33.53;16.38;;;4.30;99.90;;;;;;5032033;28;20234;-85
2020/12/06 08:45:06;;;;;;;31.35;16.33;;;4.40;99.90;;;;;;5031798;28;20228;-84
2020/12/06 08:47:44;;;;;;;32.92;17.65;;;4.30;99.90;;;;;;5031238;28;20652;-84
2020/12/06 08:50:14;;;;;;;34.45;19.38;;;4.40;99.90;;;;;;5031757;28;20282;-84
2020/12/06 08:52:41;;;;;;;33.63;17.17;;;4.50;99.90;;;;;;5031395;28;20752;-84
2020/12/06 08:55:27;;;;;;;39.13;19.70;;;4.60;99.90;;;;;;5031033;28;20245;-84
2020/12/06 08:57:54;;;;;;;39.67;18.83;;;4.60;99.90;;;;;;5029611;28;20209;-84
2020/12/06 09:00:20;;;;;;;33.45;18.60;;;4.70;99.90;;;;;;5031447;28;20237;-85
2020/12/06 09:02:47;;;;;;;36.47;20.70;;;4.50;99.90;;;;;;5029182;28;20330;-84
2020/12/06 09:05:16;;;;;;;40.85;21.42;;;4.70;99.90;;;;;;5030720;28;20231;-85
2020/12/06 09:07:43;;;;;;;38.88;16.27;;;4.70;99.90;;;;;;5030237;28;20205;-85
2020/12/06 09:10:09;;;;;;;29.80;18.98;;;4.80;99.90;;;;;;5029945;28;20207;-85
2020/12/06 09:12:37;;;;;;;35.60;16.65;;;4.80;99.90;;;;;;5028184;28;20204;-85
2020/12/06 09:15:05;;;;;;;41.55;17.13;;;4.70;99.90;;;;;;5026419;28;20226;-84
2020/12/06 09:17:31;;;;;;;38.72;16.60;;;4.50;99.90;;;;;;5026829;28;20212;-85
2020/12/06 09:19:57;;;;;;;34.20;17.67;;;4.40;99.90;;;;;;5026909;28;20217;-85
2020/12/06 09:22:24;;;;;;;35.15;16.38;;;4.50;99.90;;;;;;5025319;28;20238;-85
2020/12/06 09:24:51;;;;;;;33.42;14.90;;;4.60;99.90;;;;;;5026727;28;20233;-84
2020/12/06 09:27:17;;;;;;;33.70;16.48;;;4.60;99.90;;;;;;5027065;28;20232;-85
2020/12/06 09:29:43;;;;;;;35.78;17.80;;;4.20;99.90;;;;;;5027688;28;20215;-84
2020/12/06 09:32:10;;;;;;;34.33;16.30;;;4.50;99.90;;;;;;5027161;28;20201;-85
2020/12/06 09:34:36;;;;;;;30.80;14.68;;;4.80;99.90;;;;;;5026451;28;20237;-84
2020/12/06 09:37:02;;;;;;;24.85;16.00;;;4.20;99.90;;;;;;5027828;28;20223;-84
2020/12/06 09:39:29;;;;;;;26.17;13.70;;;4.60;99.90;;;;;;5027760;28;20208;-84
2020/12/06 09:41:55;;;;;;;26.27;14.55;;;4.70;99.90;;;;;;5027036;28;20225;-85
2020/12/06 09:44:22;;;;;;;30.75;17.02;;;4.90;99.90;;;;;;5030049;28;20216;-85
2020/12/06 09:46:48;;;;;;;31.27;16.15;;;4.90;99.90;;;;;;5030655;28;20228;-85
2020/12/06 09:49:14;;;;;;;24.60;15.55;;;4.90;99.90;;;;;;5030035;28;20208;-85
2020/12/06 09:51:41;;;;;;;23.27;12.40;;;4.70;99.90;;;;;;5029354;28;20448;-84
2020/12/06 09:54:08;;;;;;;17.65;10.65;;;4.90;99.90;;;;;;5030082;28;20205;-85
2020/12/06 09:56:35;;;;;;;13.32;9.85;;;4.80;99.90;;;;;;5030011;28;20237;-85
2020/12/06 09:59:02;;;;;;;14.68;9.90;;;4.80;99.90;;;;;;5030589;28;20210;-84
2020/12/06 10:01:28;;;;;;;17.33;12.02;;;4.70;99.90;;;;;;5029929;28;20226;-85
2020/12/06 10:03:55;;;;;;;19.05;10.35;;;4.70;99.90;;;;;;5027618;28;20215;-84
2020/12/06 10:06:25;;;;;;;24.05;11.45;;;4.40;99.90;;;;;;5028228;28;20232;-85
2020/12/06 10:08:51;;;;;;;18.17;11.05;;;4.60;99.90;;;;;;5028747;28;20271;-85
2020/12/06 10:11:18;;;;;;;19.20;10.43;;;4.50;99.90;;;;;;5027464;28;20215;-84
2020/12/06 10:13:45;;;;;;;15.50;12.48;;;4.30;99.90;;;;;;5027001;28;20236;-85
2020/12/06 10:16:11;;;;;;;23.23;10.85;;;4.20;99.90;;;;;;5027880;28;20294;-85
2020/12/06 10:18:37;;;;;;;21.73;12.98;;;4.20;99.90;;;;;;5028779;28;20258;-85
2020/12/06 10:21:05;;;;;;;16.23;12.25;;;4.30;99.90;;;;;;5028786;28;20306;-84
2020/12/06 10:23:31;;;;;;;18.88;10.60;;;4.50;99.90;;;;;;5028210;28;20274;-84
2020/12/06 10:25:58;;;;;;;20.55;13.25;;;4.50;99.90;;;;;;5027915;28;20230;-83
2020/12/06 10:28:24;;;;;;;19.67;11.48;;;4.60;99.90;;;;;;5032654;28;20192;-83
2020/12/06 10:30:51;;;;;;;15.65;9.93;;;4.70;99.90;;;;;;5034071;28;20218;-83
2020/12/06 10:33:17;;;;;;;12.52;8.80;;;4.50;99.90;;;;;;5021270;28;20210;-82
2020/12/06 10:35:44;;;;;;;14.77;9.23;;;4.70;99.90;;;;;;5020743;28;20589;-82
2020/12/06 10:38:11;;;;;;;15.43;8.57;;;4.70;99.90;;;;;;5025723;28;20211;-86
2020/12/06 10:40:37;;;;;;;12.77;8.90;;;4.70;99.90;;;;;;5026965;28;20214;-85
2020/12/06 10:43:03;;;;;;;10.65;7.65;;;4.60;99.90;;;;;;5024503;28;20725;-85
2020/12/06 10:45:30;;;;;;;10.77;8.85;;;4.40;99.90;;;;;;5024085;28;20316;-85
2020/12/06 10:47:57;;;;;;;8.82;8.00;;;3.80;99.90;;;;;;5025347;28;20227;-85
2020/12/06 10:50:23;;;;;;;12.25;10.98;;;4.20;99.90;;;;;;5024072;28;20218;-85
2020/12/06 10:52:50;;;;;;;10.02;8.40;;;5.10;99.90;;;;;;5023924;28;20200;-85
2020/12/06 10:55:16;;;;;;;15.93;9.40;;;4.20;99.90;;;;;;5021558;28;20249;-85
2020/12/06 10:57:42;;;;;;;9.60;8.05;;;4.20;99.90;;;;;;5018535;28;20211;-85
2020/12/06 11:00:08;;;;;;;9.27;8.20;;;4.40;99.90;;;;;;5018484;28;20208;-85
2020/12/06 11:02:36;;;;;;;13.32;8.38;;;4.50;99.90;;;;;;5018635;28;20233;-84
2020/12/06 11:05:03;;;;;;;9.80;8.85;;;4.50;99.90;;;;;;5019092;28;20229;-84
2020/12/06 11:07:30;;;;;;;13.77;9.32;;;4.50;99.90;;;;;;5019043;28;20214;-85
2020/12/06 11:09:56;;;;;;;11.52;9.23;;;4.70;99.90;;;;;;5018940;28;20212;-85
2020/12/06 11:12:22;;;;;;;10.48;7.80;;;4.60;99.90;;;;;;5018690;28;20209;-85
2020/12/06 11:14:48;;;;;;;10.68;8.90;;;4.60;99.90;;;;;;5018095;28;20235;-85
2020/12/06 11:17:14;;;;;;;13.13;10.88;;;4.50;99.90;;;;;;5018743;28;20219;-85
2020/12/06 11:19:41;;;;;;;9.93;8.70;;;4.60;99.90;;;;;;5018654;28;20209;-85
2020/12/06 11:22:08;;;;;;;12.63;11.30;;;4.50;99.90;;;;;;5017948;28;20230;-84
2020/12/06 11:24:35;;;;;;;10.80;9.60;;;5.60;99.90;;;;;;5018101;28;20228;-85
2020/12/06 11:27:02;;;;;;;10.45;9.35;;;4.40;99.90;;;;;;5018600;28;20208;-84
2020/12/06 11:29:28;;;;;;;13.90;10.63;;;4.50;99.90;;;;;;5018638;28;20217;-85
2020/12/06 11:31:54;;;;;;;12.07;10.20;;;4.50;99.90;;;;;;5018336;28;20216;-85
2020/12/06 11:34:21;;;;;;;15.38;9.48;;;4.50;99.90;;;;;;5018251;28;20208;-85
2020/12/06 11:36:48;;;;;;;14.18;7.60;;;4.60;99.90;;;;;;5018540;28;20208;-85
2020/12/06 11:39:15;;;;;;;10.45;9.35;;;4.70;99.90;;;;;;5018485;28;20627;-85
2020/12/06 11:41:42;;;;;;;11.38;8.52;;;4.60;99.90;;;;;;5022012;28;20646;-84
2020/12/06 11:44:08;;;;;;;10.63;8.27;;;4.70;99.90;;;;;;5022464;28;20217;-85
2020/12/06 11:46:36;;;;;;;10.18;8.93;;;4.90;99.90;;;;;;5022564;28;20232;-86
2020/12/06 11:49:03;;;;;;;8.15;7.35;;;4.90;99.90;;;;;;5019451;28;20232;-85
2020/12/06 11:51:29;;;;;;;11.20;9.38;;;4.80;99.90;;;;;;5022558;28;20209;-85
2020/12/06 11:53:55;;;;;;;13.15;10.82;;;5.20;99.90;;;;;;5022471;28;20214;-85
2020/12/06 11:56:23;;;;;;;10.38;8.10;;;5.10;99.90;;;;;;5022119;28;20270;-84
2020/12/06 11:58:49;;;;;;;9.75;8.07;;;5.20;99.90;;;;;;5022280;28;20209;-84
2020/12/06 12:01:16;;;;;;;10.25;7.93;;;4.90;99.90;;;;;;5021332;28;20677;-85
2020/12/06 12:03:42;;;;;;;10.35;8.35;;;4.90;99.90;;;;;;5020907;28;20223;-85
2020/12/06 12:06:08;;;;;;;11.93;9.35;;;5.10;99.90;;;;;;5022428;28;20230;-85
2020/12/06 12:08:35;;;;;;;10.57;8.68;;;5.30;99.90;;;;;;5021624;28;20224;-85
2020/12/06 12:11:01;;;;;;;9.23;7.93;;;5.50;99.90;;;;;;5021812;28;20211;-85
2020/12/06 12:13:28;;;;;;;9.68;8.65;;;5.40;99.90;;;;;;5021455;28;20217;-85
2020/12/06 12:15:54;;;;;;;8.93;8.02;;;5.50;99.90;;;;;;5021708;28;20224;-85
2020/12/06 12:18:21;;;;;;;10.07;9.07;;;5.30;99.90;;;;;;5022107;28;20203;-85
2020/12/06 12:20:49;;;;;;;12.70;9.18;;;5.40;99.90;;;;;;5021266;28;20221;-85
2020/12/06 12:23:16;;;;;;;9.35;8.40;;;5.50;99.90;;;;;;5021388;28;20298;-85
2020/12/06 12:25:43;;;;;;;10.70;8.02;;;5.60;99.90;;;;;;5021654;28;20236;-85
2020/12/06 12:28:09;;;;;;;8.02;7.05;;;5.60;99.90;;;;;;5020323;28;20210;-84
2020/12/06 12:30:36;;;;;;;10.77;7.78;;;5.40;99.90;;;;;;5021299;28;20210;-85
2020/12/06 12:33:03;;;;;;;13.43;9.68;;;5.40;99.90;;;;;;5022569;28;20201;-85
2020/12/06 12:35:29;;;;;;;11.27;8.40;;;5.50;99.90;;;;;;5021421;28;20227;-85
2020/12/06 12:37:56;;;;;;;9.98;8.75;;;5.60;99.90;;;;;;5020950;28;20209;-85